Josephine, Alabama
Current Conditions -  °F | °C
As of 9:15 AM on Wednesday 22 Oct 2014 (Local Time) from KJKA Reporting Station
Clear Clear  
Wind Chill: 65°   Ceiling: Unl
Heat Index: 65°   Visibility: 10mi
Dew Point: 55°   Wind: 3mph
Humidity: 68%   Direction: 50°NE
Pressure: 30.08"   Gusts: NA
Location:  30.4162°N, 87.5594°W
Report Text: KJKA 221415Z AUTO 05003KT 10SM CLR 19/13 A3008 RMK AO2 T01860125
Loading
Personal Weather Stations






























Interactive Weather Map New forecast layout! Learn more

10-Day Weather Forecast

Advertisements
Track Severe Weather on mobile